Terminal Aerodrome Forecast
Issued by NWS Louisville, KY

Home | Current Version | Previous Version | Text Only | Print | Product List | Glossary On
Versions: 1 2 3 4 5 6 7 8 9 10 11 12 13 14 15 16
000
FTUS43 KLMK 220531
TAFSDF
TAF
KSDF 220531Z 2206/2312 17009KT P6SM BKN100 WS018/19045KT
     FM221200 17013G20KT P6SM OVC200
     FM221600 18014G24KT P6SM -SHRA BKN035
     FM221900 18014G24KT P6SM -SHRA BKN025
     FM222300 19013G21KT P6SM VCSH BKN035
     FM230200 22015G25KT P6SM VCSH BKN250=

USA.gov is the U.S. government's official web portal to all federal, state and local government web resources and services.